Briefing drone pour Coulanges-les-nevers

Rechercher une autre localisation

Conditions de vol :


Nous sommes le : Mardi 29 septembre 2020
Il est 08:19 UTC (10:19 LT)

Lever de soleil : 05:17 UTC (07:17 LT)
Coucher de soleil : 17:57 UTC (19:57 LT)

Météo

L'essentiel des conditions de vol

VIGILANCE MÉTÉO FRANCE - Nièvre (58)
Pas de vigilances particulieres
CARTES DES FRONTS
METAR de LFQG
LFQG 290800Z AUTO 16003KT 9999 OVC007 11/10 Q1021

Date d'émission: 29/09/2020
Heure d'émission: 08:00 UTC
Vent: 160° pour 3 KT (6 km/h)
Visibilité horizontale: > 10 km
Plafond :
- Couvert à 700ft (213m)
Température: 11 °C
Point de rosée: 10 °C
Humidité: 94%
Pression (QNH): 1021 hPa
Prévision 24h pour Nevers (1 km)
Vent : 136° pour 1 KT (4 km/h)
Temperature Maxi: 9 °C
Temperature Min: 9 °C
Humidité : 97%
Condition : Ciel dégagé



Warning: count(): Parameter must be an array or an object that implements Countable in /homepages/6/d509196549/htdocs/droneoxygene/briefing.php on line 743
WEBCAM POUR COULANGES-LES-NEVERS

Réglementation

Voler en sécurité

CARTES AERONAUTIQUE 1/500.000
CARTES VAC (LFQG)
SUP AIP




Chargement des AIP...
NOTAM (COULANGES-LES-NEVERS + Terrain à proximité / FIR )




Chargement des NOTAMS...
CONTACT PREFECTURE 58


Avertissement : Les données mises à disposition sont indicatives. Oxygène Drone ne pourra être tenu responsable de dégâts causés aux biens et aux personnes.